sensor_id;sensor_type;location;lat;lon;timestamp;pressure;altitude;pressure_sealevel;temperature;humidity
44148;BME280;29810;55.848;37.368;2022-10-31T00:02:10;97392.44;;;0.10;66.15
44148;BME280;29810;55.848;37.368;2022-10-31T00:05:12;97362.81;;;0.00;65.45
44148;BME280;29810;55.848;37.368;2022-10-31T00:08:14;97390.00;;;0.06;65.45
44148;BME280;29810;55.848;37.368;2022-10-31T00:11:16;97378.94;;;0.04;65.51
44148;BME280;29810;55.848;37.368;2022-10-31T00:14:17;97379.69;;;0.07;65.69
44148;BME280;29810;55.848;37.368;2022-10-31T00:17:19;97377.19;;;0.06;66.05
44148;BME280;29810;55.848;37.368;2022-10-31T00:20:20;97380.75;;;-0.02;65.98
44148;BME280;29810;55.848;37.368;2022-10-31T00:23:22;97372.28;;;-0.04;66.20
44148;BME280;29810;55.848;37.368;2022-10-31T00:26:23;97379.09;;;-0.04;66.47
44148;BME280;29810;55.848;37.368;2022-10-31T00:29:24;97372.34;;;-0.07;65.73
44148;BME280;29810;55.848;37.368;2022-10-31T00:32:29;97382.53;;;-0.04;66.15
44148;BME280;29810;55.848;37.368;2022-10-31T00:35:31;97367.00;;;0.03;66.37
44148;BME280;29810;55.848;37.368;2022-10-31T00:38:33;97367.88;;;0.02;65.55
44148;BME280;29810;55.848;37.368;2022-10-31T00:41:37;97369.50;;;0.06;65.73
44148;BME280;29810;55.848;37.368;2022-10-31T00:44:42;97360.03;;;0.08;65.31
44148;BME280;29810;55.848;37.368;2022-10-31T00:47:44;97360.94;;;0.07;65.95
44148;BME280;29810;55.848;37.368;2022-10-31T00:50:46;97344.25;;;-0.10;65.51
44148;BME280;29810;55.848;37.368;2022-10-31T00:53:50;97349.41;;;-0.11;65.01
44148;BME280;29810;55.848;37.368;2022-10-31T00:56:52;97334.28;;;-0.22;65.24
44148;BME280;29810;55.848;37.368;2022-10-31T00:59:54;97367.88;;;0.02;65.07
44148;BME280;29810;55.848;37.368;2022-10-31T01:02:55;97357.13;;;-0.13;65.44
44148;BME280;29810;55.848;37.368;2022-10-31T01:06:01;97363.00;;;-0.08;66.30
44148;BME280;29810;55.848;37.368;2022-10-31T01:09:03;97359.53;;;-0.07;66.29
44148;BME280;29810;55.848;37.368;2022-10-31T01:12:05;97347.84;;;-0.19;66.72
44148;BME280;29810;55.848;37.368;2022-10-31T01:15:07;97357.19;;;-0.16;67.58
44148;BME280;29810;55.848;37.368;2022-10-31T01:18:09;97371.75;;;-0.18;68.34
44148;BME280;29810;55.848;37.368;2022-10-31T01:21:17;97361.47;;;-0.17;69.38
44148;BME280;29810;55.848;37.368;2022-10-31T01:24:19;97359.06;;;-0.23;70.02
44148;BME280;29810;55.848;37.368;2022-10-31T01:27:20;97352.62;;;-0.41;70.99
44148;BME280;29810;55.848;37.368;2022-10-31T01:30:22;97380.78;;;-0.41;72.89
44148;BME280;29810;55.848;37.368;2022-10-31T01:33:23;97369.00;;;-0.48;76.08
44148;BME280;29810;55.848;37.368;2022-10-31T01:36:28;97374.38;;;-0.60;78.28
44148;BME280;29810;55.848;37.368;2022-10-31T01:39:29;97380.31;;;-0.58;79.44
44148;BME280;29810;55.848;37.368;2022-10-31T01:42:31;97386.59;;;-0.73;80.46
44148;BME280;29810;55.848;37.368;2022-10-31T01:45:32;97389.53;;;-0.92;82.27
44148;BME280;29810;55.848;37.368;2022-10-31T01:48:34;97384.72;;;-1.06;84.14
44148;BME280;29810;55.848;37.368;2022-10-31T01:51:54;97376.28;;;-1.11;84.89
44148;BME280;29810;55.848;37.368;2022-10-31T01:55:03;97362.03;;;-1.23;86.18
44148;BME280;29810;55.848;37.368;2022-10-31T01:58:23;97383.06;;;-1.10;87.69
44148;BME280;29810;55.848;37.368;2022-10-31T02:01:27;97376.22;;;-1.08;88.19
44148;BME280;29810;55.848;37.368;2022-10-31T02:04:29;97379.69;;;-1.12;88.33
44148;BME280;29810;55.848;37.368;2022-10-31T02:07:37;97386.56;;;-1.14;88.90
44148;BME280;29810;55.848;37.368;2022-10-31T02:10:42;97383.97;;;-1.12;89.07
44148;BME280;29810;55.848;37.368;2022-10-31T02:13:44;97388.31;;;-1.16;88.91
44148;BME280;29810;55.848;37.368;2022-10-31T02:17:05;97380.38;;;-1.04;89.31
44148;BME280;29810;55.848;37.368;2022-10-31T02:20:19;97382.72;;;-0.91;89.51
44148;BME280;29810;55.848;37.368;2022-10-31T02:30:18;97381.75;;;-0.86;89.49
44148;BME280;29810;55.848;37.368;2022-10-31T02:33:57;97371.53;;;-0.87;89.79
44148;BME280;29810;55.848;37.368;2022-10-31T02:37:16;97380.28;;;-0.97;90.08
44148;BME280;29810;55.848;37.368;2022-10-31T02:40:33;97377.00;;;-1.04;90.55
44148;BME280;29810;55.848;37.368;2022-10-31T02:44:15;97378.84;;;-1.12;91.81
44148;BME280;29810;55.848;37.368;2022-10-31T02:47:15;97377.03;;;-1.07;92.29
44148;BME280;29810;55.848;37.368;2022-10-31T02:50:23;97358.38;;;-1.12;92.10
44148;BME280;29810;55.848;37.368;2022-10-31T02:53:31;97376.22;;;-1.08;91.91
44148;BME280;29810;55.848;37.368;2022-10-31T02:56:33;97369.53;;;-1.15;92.21
44148;BME280;29810;55.848;37.368;2022-10-31T02:59:36;97372.91;;;-1.13;92.52
44148;BME280;29810;55.848;37.368;2022-10-31T03:06:02;97386.31;;;-1.02;92.45
44148;BME280;29810;55.848;37.368;2022-10-31T03:09:24;97382.06;;;-1.03;92.44
44148;BME280;29810;55.848;37.368;2022-10-31T03:15:57;97378.94;;;-1.17;92.35
44148;BME280;29810;55.848;37.368;2022-10-31T03:19:40;97388.81;;;-0.98;91.58
44148;BME280;29810;55.848;37.368;2022-10-31T03:22:42;97379.37;;;-0.95;91.61
44148;BME280;29810;55.848;37.368;2022-10-31T03:25:46;97384.81;;;-1.12;91.81
44148;BME280;29810;55.848;37.368;2022-10-31T03:29:09;97387.22;;;-1.04;92.04
44148;BME280;29810;55.848;37.368;2022-10-31T03:32:16;97394.75;;;-0.96;91.56
44148;BME280;29810;55.848;37.368;2022-10-31T03:35:22;97376.03;;;-0.98;91.65
44148;BME280;29810;55.848;37.368;2022-10-31T03:38:25;97377.91;;;-1.07;91.14
44148;BME280;29810;55.848;37.368;2022-10-31T03:41:29;97389.00;;;-1.08;91.24
44148;BME280;29810;55.848;37.368;2022-10-31T03:44:34;97376.97;;;-1.03;91.83
44148;BME280;29810;55.848;37.368;2022-10-31T03:47:37;97380.28;;;-0.97;91.11
44148;BME280;29810;55.848;37.368;2022-10-31T03:54:08;97388.09;;;-1.05;91.31
44148;BME280;29810;55.848;37.368;2022-10-31T03:57:53;97392.16;;;-0.95;91.31
44148;BME280;29810;55.848;37.368;2022-10-31T04:00:48;97397.16;;;-0.89;91.28
44148;BME280;29810;55.848;37.368;2022-10-31T04:03:53;97402.44;;;-0.96;90.69
44148;BME280;29810;55.848;37.368;2022-10-31T04:06:56;97396.75;;;-1.11;90.78
44148;BME280;29810;55.848;37.368;2022-10-31T04:10:02;97400.88;;;-1.05;90.51
44148;BME280;29810;55.848;37.368;2022-10-31T04:13:11;97401.59;;;-0.98;91.96
44148;BME280;29810;55.848;37.368;2022-10-31T04:16:17;97399.78;;;-0.92;95.53
44148;BME280;29810;55.848;37.368;2022-10-31T04:19:19;97381.22;;;-1.02;95.10
44148;BME280;29810;55.848;37.368;2022-10-31T04:22:21;97406.62;;;-0.92;94.64
44148;BME280;29810;55.848;37.368;2022-10-31T04:25:22;97412.84;;;-1.06;93.66
44148;BME280;29810;55.848;37.368;2022-10-31T04:28:25;97410.19;;;-1.01;93.62
44148;BME280;29810;55.848;37.368;2022-10-31T04:31:27;97420.38;;;-0.98;92.80
44148;BME280;29810;55.848;37.368;2022-10-31T04:34:29;97426.19;;;-0.90;92.64
44148;BME280;29810;55.848;37.368;2022-10-31T04:37:39;97424.41;;;-0.88;92.07
44148;BME280;29810;55.848;37.368;2022-10-31T04:40:41;97436.34;;;-0.87;91.98
44148;BME280;29810;55.848;37.368;2022-10-31T04:43:43;97434.66;;;-0.88;92.15
44148;BME280;29810;55.848;37.368;2022-10-31T04:46:45;97428.81;;;-0.94;93.11
44148;BME280;29810;55.848;37.368;2022-10-31T04:49:47;97434.84;;;-0.97;93.31
44148;BME280;29810;55.848;37.368;2022-10-31T04:52:49;97435.00;;;-1.06;93.14
44148;BME280;29810;55.848;37.368;2022-10-31T04:55:51;97448.37;;;-0.92;93.85
44148;BME280;29810;55.848;37.368;2022-10-31T04:58:53;97452.41;;;-0.80;93.26
44148;BME280;29810;55.848;37.368;2022-10-31T05:01:56;97443.16;;;-0.86;92.83
44148;BME280;29810;55.848;37.368;2022-10-31T05:04:58;97448.37;;;-0.92;92.79
44148;BME280;29810;55.848;37.368;2022-10-31T05:08:00;97458.50;;;-0.86;93.06
44148;BME280;29810;55.848;37.368;2022-10-31T05:11:04;97467.06;;;-0.87;92.24
44148;BME280;29810;55.848;37.368;2022-10-31T05:14:05;97464.66;;;-0.96;92.93
44148;BME280;29810;55.848;37.368;2022-10-31T05:17:10;97473.13;;;-0.92;93.10
44148;BME280;29810;55.848;37.368;2022-10-31T05:20:15;97480.56;;;-0.80;92.94
44148;BME280;29810;55.848;37.368;2022-10-31T05:23:18;97487.53;;;-0.87;92.84
44148;BME280;29810;55.848;37.368;2022-10-31T05:26:21;97498.63;;;-0.88;93.35
44148;BME280;29810;55.848;37.368;2022-10-31T05:29:23;97503.00;;;-0.94;92.62
44148;BME280;29810;55.848;37.368;2022-10-31T05:32:24;97511.38;;;-0.85;94.15
44148;BME280;29810;55.848;37.368;2022-10-31T05:35:30;97508.09;;;-0.91;93.86
44148;BME280;29810;55.848;37.368;2022-10-31T05:38:34;97526.06;;;-0.96;94.39
44148;BME280;29810;55.848;37.368;2022-10-31T05:41:37;97530.03;;;-0.78;94.85
44148;BME280;29810;55.848;37.368;2022-10-31T05:44:39;97531.63;;;-0.72;93.96
44148;BME280;29810;55.848;37.368;2022-10-31T05:47:42;97533.56;;;-0.85;93.35
44148;BME280;29810;55.848;37.368;2022-10-31T05:50:49;97546.19;;;-0.74;94.73
44148;BME280;29810;55.848;37.368;2022-10-31T05:53:51;97550.31;;;-0.69;94.81
44148;BME280;29810;55.848;37.368;2022-10-31T05:56:53;97558.31;;;-0.86;94.12
44148;BME280;29810;55.848;37.368;2022-10-31T05:59:55;97563.66;;;-1.00;94.75
44148;BME280;29810;55.848;37.368;2022-10-31T06:03:01;97577.34;;;-1.01;96.50
44148;BME280;29810;55.848;37.368;2022-10-31T06:06:04;97589.88;;;-0.87;96.78
44148;BME280;29810;55.848;37.368;2022-10-31T06:09:05;97600.16;;;-0.88;96.57
44148;BME280;29810;55.848;37.368;2022-10-31T06:12:08;97590.56;;;-0.75;97.60
44148;BME280;29810;55.848;37.368;2022-10-31T06:15:19;97603.34;;;-0.75;97.48
44148;BME280;29810;55.848;37.368;2022-10-31T06:18:21;97622.16;;;-0.78;97.33
44148;BME280;29810;55.848;37.368;2022-10-31T06:21:23;97625.50;;;-0.73;97.48
44148;BME280;29810;55.848;37.368;2022-10-31T06:24:25;97595.09;;;-0.93;97.10
44148;BME280;29810;55.848;37.368;2022-10-31T06:27:29;97634.97;;;-0.78;97.78
44148;BME280;29810;55.848;37.368;2022-10-31T06:30:31;97653.72;;;-0.79;98.84
44148;BME280;29810;55.848;37.368;2022-10-31T06:33:34;97654.37;;;-0.66;99.44
44148;BME280;29810;55.848;37.368;2022-10-31T06:36:36;97675.78;;;-0.70;99.56
44148;BME280;29810;55.848;37.368;2022-10-31T06:39:38;97684.13;;;-0.57;99.76
44148;BME280;29810;55.848;37.368;2022-10-31T06:42:42;97673.00;;;-0.58;100.00
44148;BME280;29810;55.848;37.368;2022-10-31T06:45:44;97682.25;;;-0.49;100.00
44148;BME280;29810;55.848;37.368;2022-10-31T06:48:47;97685.59;;;-0.44;99.92
44148;BME280;29810;55.848;37.368;2022-10-31T06:51:50;97712.91;;;-0.43;99.86
44148;BME280;29810;55.848;37.368;2022-10-31T06:54:52;97718.94;;;-0.48;100.00
44148;BME280;29810;55.848;37.368;2022-10-31T06:57:56;97707.78;;;-0.43;100.00
44148;BME280;29810;55.848;37.368;2022-10-31T07:01:00;97717.00;;;-0.34;100.00
44148;BME280;29810;55.848;37.368;2022-10-31T07:04:01;97745.09;;;-0.29;100.00
44148;BME280;29810;55.848;37.368;2022-10-31T07:07:06;97731.22;;;-0.16;99.80
44148;BME280;29810;55.848;37.368;2022-10-31T07:10:08;97747.31;;;-0.08;99.00
44148;BME280;29810;55.848;37.368;2022-10-31T07:13:13;97756.06;;;-0.21;97.31
44148;BME280;29810;55.848;37.368;2022-10-31T07:16:16;97754.25;;;-0.16;97.99
44148;BME280;29810;55.848;37.368;2022-10-31T07:19:18;97785.06;;;-0.19;98.08
44148;BME280;29810;55.848;37.368;2022-10-31T07:22:19;97800.50;;;-0.24;97.59
44148;BME280;29810;55.848;37.368;2022-10-31T07:25:23;97783.37;;;-0.20;99.05
44148;BME280;29810;55.848;37.368;2022-10-31T07:28:34;97803.97;;;-0.26;99.51
44148;BME280;29810;55.848;37.368;2022-10-31T07:31:36;97810.75;;;-0.22;99.87
44148;BME280;29810;55.848;37.368;2022-10-31T07:34:38;97819.94;;;-0.12;98.20
44148;BME280;29810;55.848;37.368;2022-10-31T07:37:43;97831.91;;;-0.11;97.89
44148;BME280;29810;55.848;37.368;2022-10-31T07:40:52;97830.09;;;-0.06;96.34
44148;BME280;29810;55.848;37.368;2022-10-31T07:43:54;97832.53;;;0.04;95.39
44148;BME280;29810;55.848;37.368;2022-10-31T07:46:57;97840.03;;;0.16;95.48
44148;BME280;29810;55.848;37.368;2022-10-31T07:50:01;97846.84;;;0.17;94.70
44148;BME280;29810;55.848;37.368;2022-10-31T07:53:09;97866.53;;;0.13;93.78
44148;BME280;29810;55.848;37.368;2022-10-31T07:56:12;97865.44;;;0.28;94.33
44148;BME280;29810;55.848;37.368;2022-10-31T07:59:15;97870.47;;;0.35;94.09
44148;BME280;29810;55.848;37.368;2022-10-31T08:02:17;97883.06;;;0.47;92.54
44148;BME280;29810;55.848;37.368;2022-10-31T08:05:20;97901.00;;;0.47;91.38
44148;BME280;29810;55.848;37.368;2022-10-31T08:08:36;97889.09;;;0.44;89.78
44148;BME280;29810;55.848;37.368;2022-10-31T08:11:39;97905.22;;;0.53;88.76
44148;BME280;29810;55.848;37.368;2022-10-31T08:14:41;97905.06;;;0.59;87.74
44148;BME280;29810;55.848;37.368;2022-10-31T08:17:42;97894.84;;;0.57;88.92
44148;BME280;29810;55.848;37.368;2022-10-31T08:20:44;97910.06;;;0.68;88.29
44148;BME280;29810;55.848;37.368;2022-10-31T08:23:47;97925.34;;;0.74;86.69
44148;BME280;29810;55.848;37.368;2022-10-31T08:26:48;97907.41;;;0.73;85.38
44148;BME280;29810;55.848;37.368;2022-10-31T08:29:52;97897.87;;;0.79;86.47
44148;BME280;29810;55.848;37.368;2022-10-31T08:33:01;97929.19;;;0.98;86.12
44148;BME280;29810;55.848;37.368;2022-10-31T08:36:09;97930.72;;;1.09;85.64
44148;BME280;29810;55.848;37.368;2022-10-31T08:39:12;97943.50;;;1.10;85.20
44148;BME280;29810;55.848;37.368;2022-10-31T08:42:14;97933.84;;;1.23;84.35
44148;BME280;29810;55.848;37.368;2022-10-31T08:45:15;97952.59;;;1.28;84.37
44148;BME280;29810;55.848;37.368;2022-10-31T08:48:17;97965.50;;;1.24;82.01
44148;BME280;29810;55.848;37.368;2022-10-31T08:51:18;97962.12;;;1.22;83.49
44148;BME280;29810;55.848;37.368;2022-10-31T08:54:24;97971.63;;;1.18;78.98
44148;BME280;29810;55.848;37.368;2022-10-31T08:57:33;97983.59;;;1.19;80.62
44148;BME280;29810;55.848;37.368;2022-10-31T09:00:36;97997.47;;;1.09;78.81
44148;BME280;29810;55.848;37.368;2022-10-31T09:03:37;97984.47;;;1.15;80.38
44148;BME280;29810;55.848;37.368;2022-10-31T09:06:39;97978.47;;;1.16;79.53
44148;BME280;29810;55.848;37.368;2022-10-31T09:09:40;98003.53;;;1.03;77.95
44148;BME280;29810;55.848;37.368;2022-10-31T09:12:42;97996.84;;;0.94;77.34
44148;BME280;29810;55.848;37.368;2022-10-31T09:15:50;97997.47;;;1.09;79.05
44148;BME280;29810;55.848;37.368;2022-10-31T09:18:53;97993.69;;;1.28;79.71
44148;BME280;29810;55.848;37.368;2022-10-31T09:21:55;98003.03;;;1.31;75.90
44148;BME280;29810;55.848;37.368;2022-10-31T09:24:58;97999.41;;;1.43;76.36
44148;BME280;29810;55.848;37.368;2022-10-31T09:28:01;98036.03;;;1.51;75.54
44148;BME280;29810;55.848;37.368;2022-10-31T09:31:04;98020.81;;;1.42;76.92
44148;BME280;29810;55.848;37.368;2022-10-31T09:34:08;98012.84;;;1.54;77.56
44148;BME280;29810;55.848;37.368;2022-10-31T09:37:14;98013.22;;;1.79;79.32
44148;BME280;29810;55.848;37.368;2022-10-31T09:40:16;98026.41;;;2.05;78.25
44148;BME280;29810;55.848;37.368;2022-10-31T09:50:00;98066.06;;;1.47;80.86
44148;BME280;29810;55.848;37.368;2022-10-31T09:56:36;98069.72;;;1.36;80.89
44148;BME280;29810;55.848;37.368;2022-10-31T09:59:40;98068.91;;;1.34;81.09
44148;BME280;29810;55.848;37.368;2022-10-31T10:03:11;98071.19;;;1.51;81.00
44148;BME280;29810;55.848;37.368;2022-10-31T10:06:22;98110.66;;;1.45;82.76
44148;BME280;29810;55.848;37.368;2022-10-31T10:09:28;98134.31;;;1.14;87.36
44148;BME280;29810;55.848;37.368;2022-10-31T10:16:54;98123.56;;;0.87;92.06
44148;BME280;29810;55.848;37.368;2022-10-31T10:26:29;98135.56;;;0.87;92.84
44148;BME280;29810;55.848;37.368;2022-10-31T10:29:42;98155.06;;;0.98;94.52
44148;BME280;29810;55.848;37.368;2022-10-31T10:32:56;98135.84;;;1.24;92.76
44148;BME280;29810;55.848;37.368;2022-10-31T10:36:00;98140.19;;;1.21;89.93
44148;BME280;29810;55.848;37.368;2022-10-31T10:39:08;98185.69;;;1.11;89.13
44148;BME280;29810;55.848;37.368;2022-10-31T10:42:14;98156.41;;;1.21;90.60
44148;BME280;29810;55.848;37.368;2022-10-31T10:45:44;98169.34;;;1.17;89.69
44148;BME280;29810;55.848;37.368;2022-10-31T10:55:44;98147.16;;;1.12;88.71
44148;BME280;29810;55.848;37.368;2022-10-31T10:58:50;98157.19;;;1.26;88.24
44148;BME280;29810;55.848;37.368;2022-10-31T11:01:51;98142.63;;;1.28;87.78
44148;BME280;29810;55.848;37.368;2022-10-31T11:04:58;98125.25;;;1.43;87.90
44148;BME280;29810;55.848;37.368;2022-10-31T11:08:02;98123.38;;;1.51;86.13
44148;BME280;29810;55.848;37.368;2022-10-31T11:14:57;98153.75;;;1.27;84.18
44148;BME280;29810;55.848;37.368;2022-10-31T11:18:05;98162.16;;;1.37;83.70
44148;BME280;29810;55.848;37.368;2022-10-31T11:21:28;98169.88;;;1.36;85.27
44148;BME280;29810;55.848;37.368;2022-10-31T11:24:37;98168.78;;;1.51;83.10
44148;BME280;29810;55.848;37.368;2022-10-31T11:27:39;98171.44;;;1.46;83.54
44148;BME280;29810;55.848;37.368;2022-10-31T11:30:50;98169.19;;;1.26;81.94
44148;BME280;29810;55.848;37.368;2022-10-31T11:33:59;98183.31;;;1.53;84.08
44148;BME280;29810;55.848;37.368;2022-10-31T11:37:23;98156.75;;;1.53;83.38
44148;BME280;29810;55.848;37.368;2022-10-31T11:40:26;98180.00;;;1.45;82.17
44148;BME280;29810;55.848;37.368;2022-10-31T11:43:28;98166.31;;;1.44;85.13
44148;BME280;29810;55.848;37.368;2022-10-31T11:46:40;98157.63;;;1.53;85.30
44148;BME280;29810;55.848;37.368;2022-10-31T11:49:45;98160.84;;;1.64;82.42
44148;BME280;29810;55.848;37.368;2022-10-31T11:52:51;98181.84;;;1.87;84.20
44148;BME280;29810;55.848;37.368;2022-10-31T11:56:15;98188.06;;;1.75;84.81
44148;BME280;29810;55.848;37.368;2022-10-31T11:59:28;98187.69;;;1.96;85.11
44148;BME280;29810;55.848;37.368;2022-10-31T12:02:30;98186.81;;;1.96;83.77
44148;BME280;29810;55.848;37.368;2022-10-31T12:05:32;98180.00;;;1.93;86.08
44148;BME280;29810;55.848;37.368;2022-10-31T12:08:35;98175.38;;;2.12;84.78
44148;BME280;29810;55.848;37.368;2022-10-31T12:11:53;98175.31;;;2.17;85.58
44148;BME280;29810;55.848;37.368;2022-10-31T12:31:21;98198.56;;;1.62;84.89
44148;BME280;29810;55.848;37.368;2022-10-31T12:34:38;98189.84;;;1.73;86.52
44148;BME280;29810;55.848;37.368;2022-10-31T12:37:57;98201.00;;;1.70;87.12
44148;BME280;29810;55.848;37.368;2022-10-31T12:42:13;98205.41;;;1.62;88.25
44148;BME280;29810;55.848;37.368;2022-10-31T12:45:00;98181.53;;;1.58;87.62
44148;BME280;29810;55.848;37.368;2022-10-31T12:48:24;98211.31;;;1.69;86.61
44148;BME280;29810;55.848;37.368;2022-10-31T12:55:48;98223.16;;;1.77;86.17
44148;BME280;29810;55.848;37.368;2022-10-31T12:59:37;98222.22;;;1.81;86.55
44148;BME280;29810;55.848;37.368;2022-10-31T13:06:09;98235.84;;;1.88;84.98
44148;BME280;29810;55.848;37.368;2022-10-31T13:09:20;98237.53;;;1.88;85.03
44148;BME280;29810;55.848;37.368;2022-10-31T13:12:24;98271.84;;;1.85;83.98
44148;BME280;29810;55.848;37.368;2022-10-31T13:15:33;98261.75;;;1.74;84.18
44148;BME280;29810;55.848;37.368;2022-10-31T13:25:19;98281.47;;;1.75;84.01
44148;BME280;29810;55.848;37.368;2022-10-31T13:28:46;98275.53;;;1.70;83.82
44148;BME280;29810;55.848;37.368;2022-10-31T13:31:48;98284.84;;;1.77;83.76
44148;BME280;29810;55.848;37.368;2022-10-31T13:34:53;98272.06;;;1.71;83.80
44148;BME280;29810;55.848;37.368;2022-10-31T13:38:22;98263.56;;;1.69;83.61
44148;BME280;29810;55.848;37.368;2022-10-31T13:41:48;98289.28;;;1.68;83.30
44148;BME280;29810;55.848;37.368;2022-10-31T13:44:51;98276.34;;;1.72;83.67
44148;BME280;29810;55.848;37.368;2022-10-31T13:51:32;98289.94;;;1.80;83.74
44148;BME280;29810;55.848;37.368;2022-10-31T13:54:35;98296.84;;;1.77;84.24
44148;BME280;29810;55.848;37.368;2022-10-31T13:57:40;98316.41;;;1.87;83.39
44148;BME280;29810;55.848;37.368;2022-10-31T14:00:43;98303.56;;;1.86;84.10
44148;BME280;29810;55.848;37.368;2022-10-31T14:03:53;98333.53;;;1.88;83.98
44148;BME280;29810;55.848;37.368;2022-10-31T14:07:05;98312.91;;;1.91;83.85
44148;BME280;29810;55.848;37.368;2022-10-31T14:13:32;98333.53;;;1.88;84.11
44148;BME280;29810;55.848;37.368;2022-10-31T14:16:37;98325.06;;;1.80;84.57
44148;BME280;29810;55.848;37.368;2022-10-31T14:19:56;98317.69;;;1.58;84.67
44148;BME280;29810;55.848;37.368;2022-10-31T14:23:31;98342.25;;;1.78;84.40
44148;BME280;29810;55.848;37.368;2022-10-31T14:26:36;98346.37;;;1.88;83.78
44148;BME280;29810;55.848;37.368;2022-10-31T14:29:38;98313.28;;;1.67;83.69
44148;BME280;29810;55.848;37.368;2022-10-31T14:32:39;98351.53;;;1.85;83.76
44148;BME280;29810;55.848;37.368;2022-10-31T14:36:04;98347.41;;;1.75;83.72
44148;BME280;29810;55.848;37.368;2022-10-31T14:39:18;98355.19;;;1.72;83.40
44148;BME280;29810;55.848;37.368;2022-10-31T14:49:39;98366.12;;;1.85;82.61
44148;BME280;29810;55.848;37.368;2022-10-31T14:52:48;98357.66;;;1.78;82.56
44148;BME280;29810;55.848;37.368;2022-10-31T14:55:53;98374.69;;;1.85;82.82
44148;BME280;29810;55.848;37.368;2022-10-31T14:58:59;98371.19;;;1.89;82.39
44148;BME280;29810;55.848;37.368;2022-10-31T15:02:22;98373.84;;;1.85;82.26
44148;BME280;29810;55.848;37.368;2022-10-31T15:05:26;98377.25;;;1.85;81.76
44148;BME280;29810;55.848;37.368;2022-10-31T15:08:40;98396.88;;;1.89;81.63
44148;BME280;29810;55.848;37.368;2022-10-31T15:11:41;98385.66;;;1.96;81.75
44148;BME280;29810;55.848;37.368;2022-10-31T15:14:43;98408.87;;;1.90;80.89
44148;BME280;29810;55.848;37.368;2022-10-31T15:17:48;98450.97;;;1.81;80.80
44148;BME280;29810;55.848;37.368;2022-10-31T15:20:53;98410.72;;;1.82;81.14
44148;BME280;29810;55.848;37.368;2022-10-31T15:23:57;98404.66;;;1.86;80.99
44148;BME280;29810;55.848;37.368;2022-10-31T15:27:00;98411.50;;;1.87;81.45
44148;BME280;29810;55.848;37.368;2022-10-31T15:30:02;98417.59;;;1.80;81.29
44148;BME280;29810;55.848;37.368;2022-10-31T15:33:39;98434.59;;;1.90;80.87
44148;BME280;29810;55.848;37.368;2022-10-31T15:36:43;98463.03;;;1.79;80.63
44148;BME280;29810;55.848;37.368;2022-10-31T15:39:49;98441.91;;;1.57;82.09
44148;BME280;29810;55.848;37.368;2022-10-31T15:42:56;98433.31;;;1.57;81.90
44148;BME280;29810;55.848;37.368;2022-10-31T15:45:59;98452.16;;;1.59;80.85
44148;BME280;29810;55.848;37.368;2022-10-31T15:49:01;98459.00;;;1.60;81.08
44148;BME280;29810;55.848;37.368;2022-10-31T15:52:07;98436.75;;;1.57;80.62
44148;BME280;29810;55.848;37.368;2022-10-31T15:55:18;98436.00;;;1.51;80.68
44148;BME280;29810;55.848;37.368;2022-10-31T15:58:21;98455.66;;;1.53;80.91
44148;BME280;29810;55.848;37.368;2022-10-31T16:01:30;98470.97;;;1.59;80.57
44148;BME280;29810;55.848;37.368;2022-10-31T16:04:33;98463.44;;;1.45;81.22
44148;BME280;29810;55.848;37.368;2022-10-31T16:07:48;98459.19;;;1.44;81.60
44148;BME280;29810;55.848;37.368;2022-10-31T16:10:51;98467.72;;;1.48;81.77
44148;BME280;29810;55.848;37.368;2022-10-31T16:13:56;98453.94;;;1.52;81.83
44148;BME280;29810;55.848;37.368;2022-10-31T16:16:59;98468.63;;;1.44;82.18
44148;BME280;29810;55.848;37.368;2022-10-31T16:20:04;98473.78;;;1.39;82.22
44148;BME280;29810;55.848;37.368;2022-10-31T16:23:14;98480.62;;;1.40;82.39
44148;BME280;29810;55.848;37.368;2022-10-31T16:26:18;98495.28;;;1.30;82.54
44148;BME280;29810;55.848;37.368;2022-10-31T16:32:51;98476.34;;;1.41;82.50
44148;BME280;29810;55.848;37.368;2022-10-31T16:35:56;98491.75;;;1.41;82.39
44148;BME280;29810;55.848;37.368;2022-10-31T16:38:58;98500.37;;;1.37;81.94
44148;BME280;29810;55.848;37.368;2022-10-31T16:42:00;98502.13;;;1.31;81.99
44148;BME280;29810;55.848;37.368;2022-10-31T16:45:01;98506.38;;;1.34;82.31
44148;BME280;29810;55.848;37.368;2022-10-31T16:48:08;98510.69;;;1.34;82.57
44148;BME280;29810;55.848;37.368;2022-10-31T16:51:12;98518.38;;;1.34;83.08
44148;BME280;29810;55.848;37.368;2022-10-31T16:54:14;98520.22;;;1.22;83.37
44148;BME280;29810;55.848;37.368;2022-10-31T16:57:17;98509.03;;;1.26;83.84
44148;BME280;29810;55.848;37.368;2022-10-31T17:00:22;98510.84;;;1.15;84.29
44148;BME280;29810;55.848;37.368;2022-10-31T17:03:24;98503.25;;;1.06;84.29
44148;BME280;29810;55.848;37.368;2022-10-31T17:06:26;98527.19;;;1.09;84.55
44148;BME280;29810;55.848;37.368;2022-10-31T17:09:28;98534.84;;;1.14;84.50
44148;BME280;29810;55.848;37.368;2022-10-31T17:12:30;98534.84;;;1.11;84.16
44148;BME280;29810;55.848;37.368;2022-10-31T17:15:44;98539.19;;;1.06;84.24
44148;BME280;29810;55.848;37.368;2022-10-31T17:18:46;98530.59;;;1.08;84.29
44148;BME280;29810;55.848;37.368;2022-10-31T17:21:48;98540.00;;;1.14;84.10
44148;BME280;29810;55.848;37.368;2022-10-31T17:24:50;98532.41;;;1.00;84.57
44148;BME280;29810;55.848;37.368;2022-10-31T17:27:52;98542.59;;;1.08;84.77
44148;BME280;29810;55.848;37.368;2022-10-31T17:30:56;98560.53;;;1.11;84.68
44148;BME280;29810;55.848;37.368;2022-10-31T17:33:59;98559.72;;;1.06;84.87
44148;BME280;29810;55.848;37.368;2022-10-31T17:37:13;98582.78;;;1.12;84.97
44148;BME280;29810;55.848;37.368;2022-10-31T17:40:19;98564.81;;;1.12;85.03
44148;BME280;29810;55.848;37.368;2022-10-31T17:43:21;98594.78;;;1.13;84.60
44148;BME280;29810;55.848;37.368;2022-10-31T17:46:27;98588.03;;;1.01;84.92
44148;BME280;29810;55.848;37.368;2022-10-31T17:49:29;98596.53;;;1.06;84.65
44148;BME280;29810;55.848;37.368;2022-10-31T17:52:34;98593.97;;;1.06;84.40
44148;BME280;29810;55.848;37.368;2022-10-31T17:55:36;98561.56;;;0.91;84.20
44148;BME280;29810;55.848;37.368;2022-10-31T17:58:38;98605.97;;;1.03;83.97